LVNO2: Poteau River At Loving, OK

                                SHEF ID:       LVNO2     Poteau River at Loving, OK
STATION TYPE:
Regulating: Stage = 20.00, Flow = 4673

STAGE RIV-FLOW VOLTAGE BAT-LOAD
ft cfs volt volt
Ccp-Rev Ccp-Rev Ccp-Rev Ccp-Rev
(America/Chicago)
04/28 00:00 13.23 1323 12.81 ----
04/28 01:00 13.18 1301 12.79 ----
04/28 02:00 13.13 1279 12.78 ----
04/28 03:00 13.08 1257 12.77 ----
04/28 04:00 13.02 1232 12.76 ----
04/28 05:00 12.98 1214 12.74 ----
04/28 06:00 12.94 1196 12.72 ----
04/28 07:00 12.90 1178 12.72 ----
04/28 08:00 12.86 1161 12.84 ----
04/28 09:00 12.83 1148 13.04 ----
04/28 10:00 12.80 1134 13.28 ----
04/28 11:00 12.76 1117 13.32 ----
04/28 12:00 12.72 1100 13.02 ----
04/28 13:00 12.68 1083 14.18 ----
04/28 14:00 12.64 1065 13.48 ----
04/28 15:00 12.62 1057 13.63 ----
04/28 16:00 12.57 1036 13.21 ----
04/28 17:00 12.52 1015 13.03 ----
04/28 18:00 12.49 1002 12.96 ----
04/28 19:00 12.46 990 13.01 ----
04/28 20:00 12.44 982 12.88 ----
04/28 21:00 12.42 973 12.82 ----
04/28 22:00 12.41 969 12.81 ----
04/28 23:00 12.46 990 12.79 ----
Data processed at Wed 29Apr2026 04:51 GMT

NOTICE: If you are parsing this page

Please convert to using our Data API. Starting early 2026 we will be migrating to: https://water.usace.army.mil with modern pages rendered in JavaScript. When this migration completes you will no longer be able to scrape this page! CWMSDataAPI (CDA)

Timeseries IDs (TSIDs)

TSIDs used from left to right in the data table
LOVI.Stage.Inst.1Hour.0.Ccp-Rev
LOVI.Flow.Inst.1Hour.0.Ccp-Rev
LOVI.Volt-Battery.Inst.1Hour.0.Ccp-Rev
LOVI.Volt-Battery Load.Inst.1Hour.0.Ccp-Rev

                            

All information presented herein is the property of the government of the United States of America and may be revised or deleted at any time without prior notice. Dissemination of this information without the expressed written consent of the Public Affairs Office, Tulsa District U.S. Army Corps of Engineers is strictly prohibited. These data are gathered electronically and, as presented, have NOT undergone any form of quality control. These data are NOT guaranteed to be valid or correct.